createdAt,value
2018-11-27T00:00:34.412Z,7.36
2018-11-27T00:03:05.624Z,7.28
2018-11-27T00:05:35.411Z,7.26
2018-11-27T00:08:10.067Z,7.15
2018-11-27T00:10:39.664Z,7.19
2018-11-27T00:13:08.595Z,7.26
2018-11-27T00:15:37.534Z,7.30
2018-11-27T00:18:06.468Z,7.19
2018-11-27T00:20:35.429Z,7.11
2018-11-27T00:23:04.367Z,7.11
2018-11-27T00:25:33.302Z,7.17
2018-11-27T00:28:02.223Z,7.18
2018-11-27T00:30:31.184Z,7.20
2018-11-27T00:33:00.108Z,7.11
2018-11-27T00:35:29.055Z,6.97
2018-11-27T00:37:57.980Z,6.99
2018-11-27T00:40:26.919Z,6.91
2018-11-27T00:42:55.855Z,7.03
2018-11-27T00:45:24.803Z,7.09
2018-11-27T00:47:53.717Z,7.14
2018-11-27T00:50:24.063Z,7.05
2018-11-27T00:52:53.018Z,7.00
2018-11-27T00:55:22.136Z,7.01
2018-11-27T00:57:52.323Z,7.02
2018-11-27T01:00:22.373Z,6.93
2018-11-27T01:02:51.388Z,6.86
2018-11-27T01:05:21.697Z,6.58
2018-11-27T01:07:50.611Z,6.51
2018-11-27T01:10:21.690Z,6.51
2018-11-27T01:12:50.617Z,6.49
2018-11-27T01:15:19.567Z,6.58
2018-11-27T01:17:57.266Z,6.62
2018-11-27T01:20:27.158Z,6.29
2018-11-27T01:22:56.067Z,6.48
2018-11-27T01:25:25.009Z,6.45
2018-11-27T01:27:53.914Z,6.38
2018-11-27T01:30:23.395Z,6.31
2018-11-27T01:32:52.575Z,6.40
2018-11-27T01:35:22.795Z,6.34
2018-11-27T01:37:52.866Z,6.40
2018-11-27T01:40:22.799Z,6.33
2018-11-27T01:42:53.867Z,6.36
2018-11-27T01:45:23.368Z,6.35
2018-11-27T01:47:52.338Z,6.21
2018-11-27T01:50:21.378Z,6.08
2018-11-27T01:52:50.399Z,5.99
2018-11-27T01:55:21.220Z,5.80
2018-11-27T01:57:50.152Z,5.99
2018-11-27T02:00:24.685Z,5.92
2018-11-27T02:02:53.987Z,5.67
2018-11-27T02:05:23.619Z,5.52
2018-11-27T02:07:52.572Z,5.57
2018-11-27T02:10:21.519Z,5.51
2018-11-27T02:12:51.391Z,5.50
2018-11-27T02:15:21.347Z,5.62
2018-11-27T02:17:50.316Z,5.68
2018-11-27T02:20:19.261Z,5.66
2018-11-27T02:22:48.204Z,5.79
2018-11-27T02:25:21.668Z,5.75
2018-11-27T02:27:50.628Z,5.69
2018-11-27T02:30:20.906Z,5.77
2018-11-27T02:32:49.871Z,5.87
2018-11-27T02:35:20.660Z,5.86
2018-11-27T02:37:51.927Z,5.97
2018-11-27T02:40:20.847Z,6.00
2018-11-27T02:42:49.789Z,5.90
2018-11-27T02:45:20.684Z,5.84
2018-11-27T02:47:50.543Z,5.78
2018-11-27T02:50:20.491Z,5.79
2018-11-27T02:52:49.431Z,5.73
2018-11-27T02:55:21.175Z,5.68
2018-11-27T02:57:50.184Z,5.68
2018-11-27T03:00:20.319Z,5.69
2018-11-27T03:02:49.280Z,5.58
2018-11-27T03:05:23.104Z,5.48
2018-11-27T03:07:52.077Z,5.41
2018-11-27T03:10:20.999Z,5.46
2018-11-27T03:12:49.950Z,5.44
2018-11-27T03:15:18.846Z,5.31
2018-11-27T03:17:47.780Z,5.34
2018-11-27T03:20:17.526Z,5.38
2018-11-27T03:22:46.458Z,5.39
2018-11-27T03:25:17.515Z,5.32
2018-11-27T03:27:47.428Z,5.24
2018-11-27T03:30:21.149Z,5.26
2018-11-27T03:32:50.122Z,5.22
2018-11-27T03:35:19.899Z,5.22
2018-11-27T03:37:49.187Z,5.20
2018-11-27T03:40:21.912Z,5.10
2018-11-27T03:42:50.896Z,4.96
2018-11-27T03:45:20.539Z,5.07
2018-11-27T03:47:49.528Z,5.10
2018-11-27T03:50:21.420Z,5.09
2018-11-27T03:52:50.368Z,5.11
2018-11-27T03:55:19.282Z,5.15
2018-11-27T03:57:48.240Z,5.15
2018-11-27T04:00:21.135Z,5.08
2018-11-27T04:02:53.378Z,5.16
2018-11-27T04:05:23.057Z,5.08
2018-11-27T04:07:52.000Z,5.14
2018-11-27T04:10:20.959Z,5.09
2018-11-27T04:12:49.917Z,5.12
2018-11-27T04:15:18.853Z,5.10
2018-11-27T04:17:47.825Z,5.10
2018-11-27T04:20:16.803Z,5.16
2018-11-27T04:22:45.765Z,5.02
2018-11-27T04:25:15.856Z,5.14
2018-11-27T04:27:45.375Z,5.18
2018-11-27T04:30:15.292Z,5.14
2018-11-27T04:32:44.281Z,5.12
2018-11-27T04:35:15.475Z,5.10
2018-11-27T04:37:44.519Z,4.98
2018-11-27T04:40:15.300Z,4.94
2018-11-27T04:42:44.240Z,5.02
2018-11-27T04:45:16.253Z,5.00
2018-11-27T04:47:45.227Z,4.87
2018-11-27T04:50:15.098Z,4.89
2018-11-27T04:52:44.299Z,4.98
2018-11-27T04:55:14.214Z,4.91
2018-11-27T04:57:43.560Z,4.86
2018-11-27T05:00:14.512Z,4.77
2018-11-27T05:02:44.109Z,4.78
2018-11-27T05:05:13.117Z,4.72
2018-11-27T05:07:42.053Z,4.78
2018-11-27T05:10:12.109Z,4.68
2018-11-27T05:12:41.491Z,4.76
2018-11-27T05:15:12.557Z,4.57
2018-11-27T05:17:41.931Z,4.65
2018-11-27T05:20:11.779Z,4.78
2018-11-27T05:22:40.745Z,4.78
2018-11-27T05:25:12.756Z,4.87
2018-11-27T05:27:42.932Z,4.93
2018-11-27T05:30:14.928Z,5.10
2018-11-27T05:32:43.838Z,5.20
2018-11-27T05:35:14.059Z,5.25
2018-11-27T05:37:43.931Z,5.28
2018-11-27T05:40:14.248Z,5.26
2018-11-27T05:42:43.216Z,5.19
2018-11-27T05:45:15.311Z,5.06
2018-11-27T05:47:44.383Z,5.12
2018-11-27T05:50:15.363Z,5.01
2018-11-27T05:52:44.350Z,4.97
2018-11-27T05:55:13.788Z,5.00
2018-11-27T05:57:43.421Z,4.93
2018-11-27T06:00:19.265Z,4.90
2018-11-27T06:02:49.391Z,4.84
2018-11-27T06:05:19.356Z,4.88
2018-11-27T06:07:48.283Z,4.83
2018-11-27T06:10:18.327Z,4.82
2018-11-27T06:12:47.259Z,4.75
2018-11-27T06:15:21.239Z,4.88
2018-11-27T06:17:53.175Z,4.99
2018-11-27T06:20:22.783Z,5.14
2018-11-27T06:22:52.065Z,5.19
2018-11-27T06:25:29.578Z,5.13
2018-11-27T06:28:01.747Z,5.05
2018-11-27T06:30:31.468Z,5.12
2018-11-27T06:33:00.382Z,5.16
2018-11-27T06:35:32.094Z,5.13
2018-11-27T06:38:01.020Z,5.10
2018-11-27T06:40:30.901Z,5.03
2018-11-27T06:42:59.815Z,4.89
2018-11-27T06:45:28.768Z,4.92
2018-11-27T06:47:57.678Z,4.89
2018-11-27T06:50:26.620Z,4.97
2018-11-27T06:52:55.587Z,5.00
2018-11-27T06:55:24.910Z,5.10
2018-11-27T06:57:53.882Z,5.16
2018-11-27T07:00:24.164Z,5.17
2018-11-27T07:02:53.145Z,5.23
2018-11-27T07:05:22.096Z,5.13
2018-11-27T07:07:51.019Z,4.95
2018-11-27T07:10:24.164Z,5.01
2018-11-27T07:12:58.601Z,5.00
2018-11-27T07:15:27.531Z,4.86
2018-11-27T07:17:56.443Z,4.92
2018-11-27T07:20:25.387Z,4.95
2018-11-27T07:22:54.315Z,4.94
2018-11-27T07:25:23.880Z,4.75
2018-11-27T07:27:52.898Z,4.46
2018-11-27T07:30:22.940Z,4.50
2018-11-27T07:32:51.929Z,4.43
2018-11-27T07:35:21.044Z,4.46
2018-11-27T07:37:50.371Z,4.41
2018-11-27T07:40:20.507Z,4.47
2018-11-27T07:42:51.359Z,4.50
2018-11-27T07:45:22.183Z,4.35
2018-11-27T07:47:51.140Z,4.17
2018-11-27T07:50:20.227Z,4.27
2018-11-27T07:52:49.184Z,4.24
2018-11-27T07:55:20.032Z,4.38
2018-11-27T07:57:49.406Z,4.33
2018-11-27T08:00:20.588Z,4.46
2018-11-27T08:02:50.771Z,4.58
2018-11-27T08:05:21.784Z,4.67
2018-11-27T08:07:52.845Z,4.64
2018-11-27T08:10:22.942Z,4.65
2018-11-27T08:12:51.863Z,4.70
2018-11-27T08:15:22.156Z,4.73
2018-11-27T08:17:51.099Z,4.73
2018-11-27T08:20:21.493Z,4.71
2018-11-27T08:22:50.419Z,4.75
2018-11-27T08:25:20.332Z,4.77
2018-11-27T08:27:49.295Z,4.68
2018-11-27T08:30:19.138Z,4.75
2018-11-27T08:32:48.176Z,4.75
2018-11-27T08:35:19.019Z,4.64
2018-11-27T08:37:48.848Z,4.57
2018-11-27T08:40:18.935Z,4.77
2018-11-27T08:42:47.876Z,4.83
2018-11-27T08:45:17.954Z,4.74
2018-11-27T08:47:47.781Z,4.72
2018-11-27T08:50:18.051Z,4.72
2018-11-27T08:52:48.140Z,4.66
2018-11-27T08:55:25.347Z,4.75
2018-11-27T08:57:54.719Z,4.70
2018-11-27T09:00:24.816Z,4.78
2018-11-27T09:02:53.770Z,4.72
2018-11-27T09:05:22.672Z,4.65
2018-11-27T09:07:51.599Z,4.38
2018-11-27T09:10:24.671Z,4.50
2018-11-27T09:12:53.586Z,4.17
2018-11-27T09:15:23.251Z,4.24
2018-11-27T09:17:56.768Z,4.28
2018-11-27T09:20:25.718Z,4.35
2018-11-27T09:22:54.615Z,4.37
2018-11-27T09:25:23.536Z,4.22
2018-11-27T09:27:52.467Z,4.20
2018-11-27T09:30:23.652Z,4.33
2018-11-27T09:32:52.817Z,4.23
2018-11-27T09:35:22.323Z,4.36
2018-11-27T09:37:51.268Z,4.40
2018-11-27T09:40:20.860Z,4.19
2018-11-27T09:42:49.824Z,4.19
2018-11-27T09:45:20.912Z,4.34
2018-11-27T09:47:50.919Z,4.46
2018-11-27T09:50:19.853Z,4.49
2018-11-27T09:52:48.852Z,4.51
2018-11-27T09:55:18.815Z,4.54
2018-11-27T09:57:47.798Z,4.45
2018-11-27T10:00:24.612Z,4.39
2018-11-27T10:02:54.923Z,4.35
2018-11-27T10:05:23.833Z,4.52
2018-11-27T10:07:52.788Z,4.61
2018-11-27T10:10:23.512Z,4.76
2018-11-27T10:12:52.515Z,4.76
2018-11-27T10:15:22.507Z,4.73
2018-11-27T10:18:01.115Z,4.69
2018-11-27T10:20:35.696Z,4.76
2018-11-27T10:23:06.092Z,4.38
2018-11-27T10:25:35.004Z,4.39
2018-11-27T10:28:03.951Z,4.20
2018-11-27T10:30:32.892Z,4.23
2018-11-27T10:33:01.855Z,4.43
2018-11-27T10:35:39.638Z,4.65
2018-11-27T10:38:08.663Z,4.73
2018-11-27T10:40:37.596Z,4.57
2018-11-27T10:43:06.815Z,4.68
2018-11-27T10:45:35.986Z,4.66
2018-11-27T10:48:04.955Z,4.51
2018-11-27T10:50:33.888Z,4.52
2018-11-27T10:53:02.847Z,4.76
2018-11-27T10:55:31.768Z,4.95
2018-11-27T10:58:00.720Z,4.84
2018-11-27T11:00:35.135Z,4.86
2018-11-27T11:03:24.941Z,4.88
2018-11-27T11:05:54.807Z,4.93
2018-11-27T11:08:23.756Z,4.85
2018-11-27T11:10:52.755Z,4.76
2018-11-27T11:13:21.686Z,4.65
2018-11-27T11:15:50.612Z,4.76
2018-11-27T11:18:19.563Z,4.38
2018-11-27T11:20:48.484Z,4.74
2018-11-27T11:23:17.396Z,4.87
2018-11-27T11:25:46.348Z,4.78
2018-11-27T11:28:16.187Z,4.68
2018-11-27T11:30:45.148Z,4.90
2018-11-27T11:33:14.065Z,4.66
2018-11-27T11:35:42.995Z,4.56
2018-11-27T11:38:11.912Z,4.53
2018-11-27T11:40:40.852Z,4.43
2018-11-27T11:43:09.797Z,4.56
2018-11-27T11:45:38.741Z,4.50
2018-11-27T11:48:08.724Z,4.41
2018-11-27T11:50:37.684Z,4.41
2018-11-27T11:53:11.445Z,4.43
2018-11-27T11:55:40.396Z,4.30
2018-11-27T11:58:09.372Z,4.31
2018-11-27T12:00:45.524Z,4.31
2018-11-27T12:03:14.426Z,4.46
2018-11-27T12:05:43.380Z,4.44
2018-11-27T12:08:12.308Z,4.56
2018-11-27T12:10:41.271Z,4.38
2018-11-27T12:13:11.064Z,4.41
2018-11-27T12:15:40.044Z,4.24
2018-11-27T12:18:09.954Z,4.39
2018-11-27T12:20:39.891Z,3.88
2018-11-27T12:23:09.988Z,4.18
2018-11-27T12:25:39.449Z,4.24
2018-11-27T12:28:14.341Z,4.26
2018-11-27T12:30:38.403Z,4.45
2018-11-27T12:33:07.527Z,4.21
2018-11-27T12:35:36.468Z,4.37
2018-11-27T12:38:05.457Z,4.41
2018-11-27T12:40:34.431Z,4.29
2018-11-27T12:43:03.356Z,4.24
2018-11-27T12:45:33.085Z,4.31
2018-11-27T12:48:03.093Z,4.53
2018-11-27T12:50:40.516Z,4.48
2018-11-27T12:53:16.511Z,4.57
2018-11-27T12:55:41.398Z,4.50
2018-11-27T12:58:10.354Z,4.33
2018-11-27T13:00:39.490Z,4.22
2018-11-27T13:03:09.031Z,4.08
2018-11-27T13:05:41.188Z,4.42
2018-11-27T13:08:17.602Z,4.48
2018-11-27T13:10:46.555Z,4.34
2018-11-27T13:13:16.297Z,3.93
2018-11-27T13:15:45.643Z,3.93
2018-11-27T13:18:14.746Z,4.23
2018-11-27T13:20:44.586Z,4.00
2018-11-27T13:23:13.555Z,4.41
2018-11-27T13:25:42.821Z,4.59
2018-11-27T13:28:13.937Z,4.58
2018-11-27T13:30:52.757Z,4.34
2018-11-27T13:33:30.227Z,4.69
2018-11-27T13:35:59.213Z,4.68
2018-11-27T13:38:28.165Z,4.59
2018-11-27T13:40:57.124Z,4.73
2018-11-27T13:43:27.344Z,4.85
2018-11-27T13:45:57.543Z,4.78
2018-11-27T13:48:26.518Z,4.96
2018-11-27T13:50:55.531Z,5.05
2018-11-27T13:53:24.468Z,5.19
2018-11-27T13:55:53.707Z,5.16
2018-11-27T13:58:22.630Z,5.07
2018-11-27T14:00:51.584Z,4.91
2018-11-27T14:03:20.500Z,4.91
2018-11-27T14:05:49.443Z,5.04
2018-11-27T14:08:18.479Z,5.17
2018-11-27T14:10:47.434Z,5.17
2018-11-27T14:13:16.385Z,5.18
2018-11-27T14:15:45.490Z,5.16
2018-11-27T14:18:14.404Z,5.36
2018-11-27T14:20:43.379Z,5.32
2018-11-27T14:23:12.302Z,5.26
2018-11-27T14:25:41.328Z,5.38
2018-11-27T14:28:10.249Z,5.36
2018-11-27T14:30:39.227Z,5.31
2018-11-27T14:33:08.164Z,5.42
2018-11-27T14:35:37.150Z,5.34
2018-11-27T14:38:06.769Z,5.42
2018-11-27T14:40:35.666Z,5.48
2018-11-27T14:43:04.628Z,5.39
2018-11-27T14:45:33.604Z,5.57
2018-11-27T14:48:02.632Z,5.72
2018-11-27T14:50:31.570Z,5.76
2018-11-27T14:53:00.776Z,5.93
2018-11-27T14:55:30.937Z,5.96
2018-11-27T14:57:59.912Z,6.02
2018-11-27T15:00:28.939Z,5.99
2018-11-27T15:02:57.891Z,6.16
2018-11-27T15:05:28.319Z,6.26
2018-11-27T15:07:57.342Z,6.38
2018-11-27T15:10:26.372Z,6.34
2018-11-27T15:12:55.445Z,6.33
2018-11-27T15:15:24.360Z,6.31
2018-11-27T15:17:53.400Z,7.01
2018-11-27T15:20:22.908Z,6.95
2018-11-27T15:22:51.868Z,6.87
2018-11-27T15:25:20.933Z,6.82
2018-11-27T15:27:49.924Z,6.73
2018-11-27T15:30:26.944Z,6.67
2018-11-27T15:32:56.996Z,6.48
2018-11-27T15:35:26.051Z,6.72
2018-11-27T15:37:55.054Z,6.66
2018-11-27T15:40:25.183Z,6.40
2018-11-27T15:42:54.149Z,6.32
2018-11-27T15:45:25.204Z,5.98
2018-11-27T15:47:54.196Z,5.84
2018-11-27T15:50:23.143Z,5.75
2018-11-27T15:52:52.107Z,5.77
2018-11-27T15:55:30.392Z,5.71
2018-11-27T15:58:14.852Z,5.63
2018-11-27T16:00:44.323Z,5.47
2018-11-27T16:03:13.287Z,5.53
2018-11-27T16:05:44.312Z,5.57
2018-11-27T16:08:13.860Z,5.66
2018-11-27T16:10:43.149Z,5.63
2018-11-27T16:13:12.347Z,5.66
2018-11-27T16:15:41.142Z,5.50
2018-11-27T16:18:10.104Z,5.47
2018-11-27T16:20:39.492Z,5.37
2018-11-27T16:23:08.431Z,5.23
2018-11-27T16:25:37.365Z,5.14
2018-11-27T16:28:06.480Z,5.00
2018-11-27T16:30:35.434Z,5.01
2018-11-27T16:33:04.392Z,5.01
2018-11-27T16:35:33.357Z,4.99
2018-11-27T16:38:02.387Z,5.03
2018-11-27T16:40:34.140Z,5.14
2018-11-27T16:43:03.089Z,5.15
2018-11-27T16:45:32.087Z,5.22
2018-11-27T16:48:01.022Z,5.28
2018-11-27T16:50:29.940Z,5.35
2018-11-27T16:52:58.890Z,5.27
2018-11-27T16:55:27.818Z,5.31
2018-11-27T16:57:56.748Z,5.31
2018-11-27T17:00:29.213Z,5.31
2018-11-27T17:02:59.224Z,5.30
2018-11-27T17:05:29.695Z,5.30
2018-11-27T17:07:58.636Z,5.17
2018-11-27T17:10:28.039Z,4.98
2018-11-27T17:12:57.901Z,4.85
2018-11-27T17:15:27.807Z,4.79
2018-11-27T17:17:56.769Z,4.83
2018-11-27T17:20:30.824Z,4.88
2018-11-27T17:23:01.814Z,4.88
2018-11-27T17:25:30.746Z,4.95
2018-11-27T17:28:02.099Z,5.01
2018-11-27T17:30:35.231Z,4.97
2018-11-27T17:33:06.220Z,4.99
2018-11-27T17:35:35.127Z,4.91
2018-11-27T17:38:04.076Z,4.83
2018-11-27T17:40:32.984Z,4.84
2018-11-27T17:43:01.932Z,4.79
2018-11-27T17:45:30.868Z,4.81
2018-11-27T17:47:59.806Z,4.72
2018-11-27T17:50:28.803Z,4.73
2018-11-27T17:52:57.746Z,4.73
2018-11-27T17:55:26.697Z,4.67
2018-11-27T17:57:55.604Z,4.58
2018-11-27T18:00:28.557Z,4.39
2018-11-27T18:03:00.063Z,4.42
2018-11-27T18:05:28.985Z,4.50
2018-11-27T18:07:57.891Z,4.53
2018-11-27T18:10:26.831Z,4.63
2018-11-27T18:12:55.750Z,4.65
2018-11-27T18:15:24.686Z,4.67
2018-11-27T18:17:53.612Z,4.78
2018-11-27T18:20:22.572Z,4.83
2018-11-27T18:22:51.508Z,4.83
2018-11-27T18:25:20.945Z,4.78
2018-11-27T18:27:50.533Z,4.70
2018-11-27T18:30:20.881Z,4.68
2018-11-27T18:32:49.956Z,4.57
2018-11-27T18:35:21.126Z,4.43
2018-11-27T18:37:50.539Z,4.40
2018-11-27T18:40:19.520Z,4.34
2018-11-27T18:42:48.640Z,4.33
2018-11-27T18:45:20.476Z,4.36
2018-11-27T18:47:49.403Z,4.34
2018-11-27T18:50:18.379Z,4.31
2018-11-27T18:52:47.295Z,4.33
2018-11-27T18:55:16.728Z,4.44
2018-11-27T18:57:46.596Z,4.49
2018-11-27T19:00:17.854Z,4.54
2018-11-27T19:02:47.838Z,4.52
2018-11-27T19:05:16.823Z,4.48
2018-11-27T19:07:45.738Z,4.47
2018-11-27T19:10:17.724Z,4.35
2018-11-27T19:12:47.276Z,4.34
2018-11-27T19:15:20.780Z,4.18
2018-11-27T19:17:51.218Z,4.22
2018-11-27T19:20:20.161Z,4.10
2018-11-27T19:22:49.089Z,3.91
2018-11-27T19:25:18.074Z,3.66
2018-11-27T19:27:47.020Z,3.63
2018-11-27T19:30:17.283Z,3.60
2018-11-27T19:32:46.227Z,3.45
2018-11-27T19:35:16.402Z,3.58
2018-11-27T19:37:46.095Z,3.57
2018-11-27T19:40:18.429Z,3.66
2018-11-27T19:42:47.487Z,3.70
2018-11-27T19:45:19.805Z,3.82
2018-11-27T19:47:49.053Z,3.69
2018-11-27T19:50:18.126Z,3.69
2018-11-27T19:52:48.259Z,3.90
2018-11-27T19:55:18.081Z,3.88
2018-11-27T19:57:47.069Z,3.93
2018-11-27T20:00:25.736Z,4.00
2018-11-27T20:02:54.884Z,4.16
2018-11-27T20:05:26.645Z,4.21
2018-11-27T20:07:55.685Z,4.11
2018-11-27T20:10:24.791Z,4.10
2018-11-27T20:12:53.752Z,4.08
2018-11-27T20:15:24.627Z,3.97
2018-11-27T20:17:54.144Z,4.02
2018-11-27T20:20:24.205Z,4.11
2018-11-27T20:22:53.790Z,4.19
2018-11-27T20:25:23.545Z,4.12
2018-11-27T20:27:53.034Z,4.04
2018-11-27T20:30:24.955Z,4.04
2018-11-27T20:32:56.072Z,3.98
2018-11-27T20:35:25.160Z,3.85
2018-11-27T20:37:55.533Z,3.65
2018-11-27T20:40:24.760Z,3.61
2018-11-27T20:42:53.688Z,3.50
2018-11-27T20:45:24.023Z,3.44
2018-11-27T20:47:55.348Z,3.35
2018-11-27T20:50:24.351Z,3.31
2018-11-27T20:52:53.263Z,3.48
2018-11-27T20:55:22.503Z,3.38
2018-11-27T20:57:54.911Z,3.34
2018-11-27T21:00:29.683Z,3.31
2018-11-27T21:03:00.084Z,3.15
2018-11-27T21:05:29.051Z,3.21
2018-11-27T21:07:57.976Z,2.78
2018-11-27T21:10:26.916Z,2.93
2018-11-27T21:12:55.835Z,2.95
2018-11-27T21:15:24.795Z,3.00
2018-11-27T21:17:53.792Z,3.03
2018-11-27T21:20:22.724Z,3.10
2018-11-27T21:22:51.770Z,3.20
2018-11-27T21:25:21.721Z,3.23
2018-11-27T21:27:55.169Z,3.25
2018-11-27T21:30:24.111Z,3.25
2018-11-27T21:32:53.035Z,3.46
2018-11-27T21:35:21.959Z,3.38
2018-11-27T21:37:50.892Z,3.39
2018-11-27T21:40:19.864Z,3.47
2018-11-27T21:42:48.821Z,3.53
2018-11-27T21:45:23.027Z,3.53
2018-11-27T21:47:52.559Z,3.69
2018-11-27T21:50:27.632Z,3.68
2018-11-27T21:52:56.924Z,3.78
2018-11-27T21:55:25.940Z,3.83
2018-11-27T21:57:55.331Z,3.88
2018-11-27T22:00:25.248Z,3.82
2018-11-27T22:02:54.347Z,3.70
2018-11-27T22:05:23.275Z,3.70
2018-11-27T22:07:52.224Z,3.75
2018-11-27T22:10:22.440Z,3.81
2018-11-27T22:12:56.879Z,3.82
2018-11-27T22:15:27.323Z,3.90
2018-11-27T22:17:56.288Z,3.53
2018-11-27T22:20:25.218Z,3.31
2018-11-27T22:22:54.208Z,3.21
2018-11-27T22:25:23.131Z,3.44
2018-11-27T22:27:52.055Z,3.51
2018-11-27T22:30:21.329Z,3.46
2018-11-27T22:32:52.315Z,3.46
2018-11-27T22:35:21.224Z,3.52
2018-11-27T22:37:50.159Z,3.52
2018-11-27T22:40:21.256Z,3.57
2018-11-27T22:42:50.940Z,3.65
2018-11-27T22:45:29.471Z,3.71
2018-11-27T22:47:58.356Z,3.64
2018-11-27T22:50:27.276Z,3.56
2018-11-27T22:52:56.203Z,3.55
2018-11-27T22:55:25.112Z,3.45
2018-11-27T22:57:54.031Z,3.45
2018-11-27T23:00:29.113Z,3.52
2018-11-27T23:02:58.071Z,3.43
2018-11-27T23:05:26.955Z,3.29
2018-11-27T23:07:55.927Z,3.29
2018-11-27T23:10:25.700Z,3.36
2018-11-27T23:12:54.616Z,3.21
2018-11-27T23:15:23.536Z,3.14
2018-11-27T23:17:52.452Z,3.25
2018-11-27T23:20:21.360Z,3.28
2018-11-27T23:22:50.277Z,3.30
2018-11-27T23:25:19.824Z,3.33
2018-11-27T23:27:48.788Z,3.37
2018-11-27T23:30:20.180Z,3.31
2018-11-27T23:32:49.127Z,3.36
2018-11-27T23:35:18.028Z,3.39
2018-11-27T23:37:46.947Z,3.26
2018-11-27T23:40:17.272Z,3.27
2018-11-27T23:42:46.572Z,3.28
2018-11-27T23:45:16.595Z,3.30
2018-11-27T23:47:45.531Z,3.10
2018-11-27T23:50:15.779Z,3.08
2018-11-27T23:52:44.907Z,3.18
2018-11-27T23:55:14.683Z,3.24
2018-11-27T23:57:43.902Z,3.29
